Time;durP1;ratioP1;P1;durP2;ratioP2;P2;SDS_P1;SDS_P2;PMS_P1;PMS_P2;Temp;Humidity;BMP_temperature;BMP_pressure;BME280_temperature;BME280_humidity;BME280_pressure;Samples;Min_cycle;Max_cycle;Signal;HPM_P1;HPM_P2
2022/10/22 00:00:59;;;;;;;867.97;321.05;;;15.60;99.90;;;;;;5148185;27;20822;-52
2022/10/22 00:03:27;;;;;;;1369.50;572.72;;;15.60;99.90;;;;;;5137182;27;20221;-51
2022/10/22 00:05:55;;;;;;;1328.65;465.38;;;15.50;99.90;;;;;;5131928;27;20914;-51
2022/10/22 00:08:23;;;;;;;1122.35;358.92;;;15.50;99.90;;;;;;5136230;27;20306;-52
2022/10/22 00:10:51;;;;;;;1264.75;497.58;;;15.60;99.90;;;;;;5152635;27;20285;-52
2022/10/22 00:13:20;;;;;;;1060.55;408.45;;;15.60;99.90;;;;;;5138192;27;20289;-52
2022/10/22 00:15:48;;;;;;;989.80;337.90;;;15.50;99.90;;;;;;5152989;27;20302;-52
2022/10/22 00:18:17;;;;;;;848.83;340.30;;;15.60;99.90;;;;;;5151472;27;20659;-50
2022/10/22 00:20:45;;;;;;;1194.05;482.60;;;15.60;99.90;;;;;;5132590;27;20241;-51
2022/10/22 00:23:13;;;;;;;1030.40;535.42;;;15.60;99.90;;;;;;5148193;27;20212;-51
2022/10/22 00:25:41;;;;;;;1325.55;493.77;;;15.60;99.90;;;;;;5146991;27;20202;-51
2022/10/22 00:28:10;;;;;;;1257.75;584.95;;;15.60;99.90;;;;;;5146565;27;20680;-52
2022/10/22 00:30:38;;;;;;;1165.10;456.58;;;15.60;99.90;;;;;;5151032;27;20252;-52
2022/10/22 00:33:06;;;;;;;1351.88;598.25;;;15.60;99.90;;;;;;5145441;27;20664;-52
2022/10/22 00:35:36;;;;;;;1339.82;511.15;;;15.60;99.90;;;;;;5153687;27;20591;-52
2022/10/22 00:38:04;;;;;;;1609.45;512.08;;;15.60;99.90;;;;;;5141419;27;20731;-51
2022/10/22 00:40:32;;;;;;;990.65;384.83;;;15.60;99.90;;;;;;5151678;27;20206;-51
2022/10/22 00:43:00;;;;;;;1077.22;414.67;;;15.60;99.90;;;;;;5152473;27;20290;-52
2022/10/22 00:45:29;;;;;;;955.10;377.15;;;15.50;99.90;;;;;;5153377;27;20229;-52
2022/10/22 00:48:01;;;;;;;1167.00;425.35;;;15.50;99.90;;;;;;5144393;27;20236;-52
2022/10/22 00:50:34;;;;;;;1126.82;438.73;;;15.50;99.90;;;;;;5151102;27;20234;-51
2022/10/22 00:53:06;;;;;;;1093.20;464.50;;;15.50;99.90;;;;;;5152014;27;20208;-51
2022/10/22 00:55:35;;;;;;;1149.40;538.88;;;15.50;99.90;;;;;;5143048;27;20281;-51
2022/10/22 00:58:04;;;;;;;1404.18;541.10;;;15.50;99.90;;;;;;5151779;27;20222;-52
2022/10/22 01:00:32;;;;;;;1688.90;632.05;;;15.50;99.90;;;;;;5148645;27;20293;-52
2022/10/22 01:03:00;;;;;;;756.53;267.75;;;15.50;99.90;;;;;;5148542;27;20580;-50
2022/10/22 01:05:31;;;;;;;1052.85;441.30;;;15.60;99.90;;;;;;5145232;27;20221;-51
2022/10/22 01:07:59;;;;;;;1180.30;525.67;;;15.60;99.90;;;;;;5151667;27;20224;-53
2022/10/22 01:10:42;;;;;;;811.38;316.90;;;15.60;99.90;;;;;;5135431;27;20697;-52
2022/10/22 01:13:24;;;;;;;1143.05;387.90;;;15.50;99.90;;;;;;5136788;27;20198;-52
2022/10/22 01:16:00;;;;;;;1226.68;567.38;;;15.50;99.90;;;;;;5148067;27;20293;-52
2022/10/22 01:18:37;;;;;;;1220.97;425.67;;;15.50;99.90;;;;;;5122666;27;20206;-52
2022/10/22 01:21:15;;;;;;;1298.85;543.67;;;15.50;99.90;;;;;;5145678;27;20644;-51
2022/10/22 01:24:05;;;;;;;1218.45;598.92;;;15.50;99.90;;;;;;5150677;27;20208;-51
2022/10/22 01:26:48;;;;;;;1084.53;362.20;;;15.50;99.90;;;;;;5151490;27;20313;-51
2022/10/22 01:29:20;;;;;;;1009.05;418.42;;;15.50;99.90;;;;;;5149751;27;20304;-52
2022/10/22 01:31:54;;;;;;;994.00;508.23;;;15.50;99.90;;;;;;5143576;27;20290;-52
2022/10/22 01:34:24;;;;;;;1160.88;507.55;;;15.50;99.90;;;;;;5151947;27;20202;-52
2022/10/22 01:36:54;;;;;;;953.78;398.30;;;15.50;99.90;;;;;;5150109;27;20376;-52
2022/10/22 01:39:23;;;;;;;1252.07;569.35;;;15.40;99.90;;;;;;5151886;27;20198;-52
2022/10/22 01:41:55;;;;;;;1436.35;486.67;;;15.40;99.90;;;;;;5151319;27;20220;-51
2022/10/22 01:44:27;;;;;;;778.40;301.58;;;15.50;99.90;;;;;;5151701;27;20316;-51
2022/10/22 01:47:10;;;;;;;1338.40;565.85;;;15.40;99.90;;;;;;5151046;27;20274;-51
2022/10/22 01:50:04;;;;;;;1235.55;415.30;;;15.40;99.90;;;;;;5151329;27;21159;-52
2022/10/22 01:52:50;;;;;;;1064.68;369.45;;;15.40;99.90;;;;;;5124922;27;20742;-51
2022/10/22 01:55:27;;;;;;;1084.20;393.42;;;15.40;99.90;;;;;;5144509;27;20204;-51
2022/10/22 01:58:04;;;;;;;1473.32;641.50;;;15.40;99.90;;;;;;5142301;27;20666;-52
2022/10/22 02:00:38;;;;;;;874.35;351.77;;;15.40;99.90;;;;;;5151055;27;20321;-51
2022/10/22 02:03:10;;;;;;;1186.78;384.10;;;15.40;99.90;;;;;;5150948;27;20190;-52
2022/10/22 02:05:44;;;;;;;1368.20;546.08;;;15.40;99.90;;;;;;5151015;27;20229;-52
2022/10/22 02:08:15;;;;;;;1264.32;629.25;;;15.40;99.90;;;;;;5151336;27;20639;-52
2022/10/22 02:10:46;;;;;;;1430.05;555.15;;;15.50;99.90;;;;;;5142964;27;20289;-52
2022/10/22 02:13:18;;;;;;;1368.57;492.15;;;15.40;99.90;;;;;;5122111;27;20685;-52
2022/10/22 02:15:51;;;;;;;1098.40;452.13;;;15.40;99.90;;;;;;5146225;27;20664;-52
2022/10/22 02:18:21;;;;;;;1152.55;405.05;;;15.40;99.90;;;;;;5146408;27;20917;-52
2022/10/22 02:20:50;;;;;;;1174.88;487.80;;;15.40;99.90;;;;;;5143053;27;20316;-51
2022/10/22 02:23:19;;;;;;;1052.15;479.02;;;15.40;99.90;;;;;;5150349;27;20209;-52
2022/10/22 02:25:53;;;;;;;819.78;250.95;;;15.40;99.90;;;;;;5150978;27;20224;-52
2022/10/22 02:28:26;;;;;;;1075.22;353.85;;;15.30;99.90;;;;;;5136795;27;20241;-50
2022/10/22 02:31:04;;;;;;;1109.60;481.20;;;15.30;99.90;;;;;;5147277;27;20260;-52
2022/10/22 02:33:36;;;;;;;1112.97;352.08;;;15.30;99.90;;;;;;5149094;27;20194;-52
2022/10/22 02:36:06;;;;;;;1221.55;464.10;;;15.40;99.90;;;;;;5139823;27;20215;-51
2022/10/22 02:38:35;;;;;;;899.60;328.95;;;15.30;99.90;;;;;;5153265;27;20288;-52
2022/10/22 02:41:04;;;;;;;866.70;314.00;;;15.30;99.90;;;;;;5155576;27;20220;-51
2022/10/22 02:43:40;;;;;;;1186.90;473.73;;;15.30;99.90;;;;;;5154203;27;20289;-51
2022/10/22 02:46:10;;;;;;;822.85;312.05;;;15.30;99.90;;;;;;5154505;27;20229;-51
2022/10/22 02:48:38;;;;;;;1238.78;487.48;;;15.20;99.90;;;;;;5144632;27;20757;-50
2022/10/22 02:51:06;;;;;;;1343.32;558.38;;;15.20;99.90;;;;;;5155231;27;20310;-51
2022/10/22 02:53:34;;;;;;;1578.35;538.20;;;15.20;99.90;;;;;;5154175;27;20738;-51
2022/10/22 02:56:02;;;;;;;1322.63;424.52;;;15.20;99.90;;;;;;5152092;27;20313;-52
2022/10/22 02:58:30;;;;;;;835.58;314.50;;;15.20;99.90;;;;;;5149457;27;20256;-52
2022/10/22 03:00:58;;;;;;;894.22;341.17;;;15.20;99.90;;;;;;5153610;27;20202;-52
2022/10/22 03:03:27;;;;;;;1028.28;356.80;;;15.20;99.90;;;;;;5153814;27;20203;-52
2022/10/22 03:05:55;;;;;;;1218.90;389.67;;;15.20;99.90;;;;;;5141732;27;20214;-51
2022/10/22 03:08:24;;;;;;;1062.32;427.60;;;15.10;99.90;;;;;;5150638;27;20295;-52
2022/10/22 03:10:52;;;;;;;1146.53;388.30;;;15.20;99.90;;;;;;5152035;27;20221;-51
2022/10/22 03:13:20;;;;;;;1361.10;454.10;;;15.20;99.90;;;;;;5139855;27;20613;-52
2022/10/22 03:15:49;;;;;;;1389.43;544.47;;;15.20;99.90;;;;;;5154333;27;20659;-52
2022/10/22 03:18:17;;;;;;;970.20;383.45;;;15.20;99.90;;;;;;5153865;27;20238;-52
2022/10/22 03:20:46;;;;;;;1404.53;413.15;;;15.20;99.90;;;;;;5154271;27;20845;-51
2022/10/22 03:23:18;;;;;;;1110.97;461.42;;;15.20;99.90;;;;;;5153997;27;20206;-51
2022/10/22 03:25:48;;;;;;;1023.20;356.08;;;15.20;99.90;;;;;;5153626;27;20222;-52
2022/10/22 03:28:18;;;;;;;896.22;394.27;;;15.10;99.90;;;;;;5153280;27;20217;-51
2022/10/22 03:30:46;;;;;;;1602.35;605.47;;;15.20;99.90;;;;;;5143581;27;20308;-52
2022/10/22 03:33:14;;;;;;;1418.00;444.83;;;15.10;99.90;;;;;;5141019;27;20294;-51
2022/10/22 03:35:46;;;;;;;1253.05;609.53;;;15.20;99.90;;;;;;5141320;27;20201;-51
2022/10/22 03:38:15;;;;;;;1204.07;441.77;;;15.20;99.90;;;;;;5152607;27;20198;-51
2022/10/22 03:40:44;;;;;;;1038.15;373.52;;;15.10;99.90;;;;;;5152308;27;20285;-52
2022/10/22 03:43:12;;;;;;;1437.88;595.10;;;15.20;99.90;;;;;;5151650;27;20297;-51
2022/10/22 03:45:40;;;;;;;1164.55;522.17;;;15.20;99.90;;;;;;5151049;27;20218;-52
2022/10/22 03:48:08;;;;;;;1055.10;453.83;;;15.20;99.90;;;;;;5145589;27;20249;-54
2022/10/22 03:50:36;;;;;;;814.22;330.98;;;15.20;99.90;;;;;;5152944;27;20294;-51
2022/10/22 03:53:09;;;;;;;1254.32;550.40;;;15.20;99.90;;;;;;5153585;27;20220;-52
2022/10/22 03:55:38;;;;;;;1250.38;516.47;;;15.20;99.90;;;;;;5155567;27;20201;-52
2022/10/22 03:58:06;;;;;;;1287.97;505.45;;;15.20;99.90;;;;;;5154531;27;20226;-52
2022/10/22 04:00:35;;;;;;;1144.47;436.50;;;15.20;99.90;;;;;;5153685;27;20205;-51
2022/10/22 04:03:03;;;;;;;1455.18;517.13;;;15.20;99.90;;;;;;5144775;27;20203;-52
2022/10/22 04:05:32;;;;;;;1035.45;482.30;;;15.30;99.90;;;;;;5148753;27;20305;-52
2022/10/22 04:08:00;;;;;;;1393.78;544.97;;;15.30;99.90;;;;;;5152403;27;20235;-51
2022/10/22 04:10:30;;;;;;;1311.15;451.38;;;15.30;99.90;;;;;;5137266;27;20586;-51
2022/10/22 04:12:58;;;;;;;1404.85;474.08;;;15.30;99.90;;;;;;5136391;27;20210;-52
2022/10/22 04:15:27;;;;;;;1165.22;461.55;;;15.30;99.90;;;;;;5152299;27;20322;-51
2022/10/22 04:17:56;;;;;;;1405.78;618.85;;;15.30;99.90;;;;;;5151721;27;20261;-52
2022/10/22 04:20:24;;;;;;;1068.40;413.58;;;15.30;99.90;;;;;;5148356;27;20913;-51
2022/10/22 04:22:52;;;;;;;1225.97;419.50;;;15.30;99.90;;;;;;5152617;27;20230;-52
2022/10/22 04:25:20;;;;;;;856.13;277.10;;;15.30;99.90;;;;;;5153351;27;20234;-51
2022/10/22 04:27:49;;;;;;;1431.97;497.75;;;15.30;99.90;;;;;;5142334;27;146033;-51
2022/10/22 04:30:18;;;;;;;1218.97;470.13;;;15.30;99.90;;;;;;5116915;27;20226;-51
2022/10/22 04:32:46;;;;;;;1185.72;405.73;;;15.30;99.90;;;;;;5142219;27;20294;-52
2022/10/22 04:35:14;;;;;;;1348.55;473.98;;;15.30;99.90;;;;;;5150421;27;20650;-51
2022/10/22 04:37:42;;;;;;;1622.07;589.83;;;15.30;99.90;;;;;;5146181;27;20283;-52
2022/10/22 04:40:11;;;;;;;1524.20;641.17;;;15.30;99.90;;;;;;5147912;27;20230;-51
2022/10/22 04:42:39;;;;;;;1367.15;462.90;;;15.30;99.90;;;;;;5147288;27;20202;-52
2022/10/22 04:45:10;;;;;;;1119.38;405.60;;;15.30;99.90;;;;;;5145711;27;20206;-52
2022/10/22 04:47:38;;;;;;;1190.25;514.20;;;15.30;99.90;;;;;;5149751;27;20219;-50
2022/10/22 04:50:08;;;;;;;811.90;293.65;;;15.30;99.90;;;;;;5148015;27;20221;-51
2022/10/22 04:52:36;;;;;;;899.05;282.02;;;15.30;99.90;;;;;;5146622;27;20769;-51
2022/10/22 04:55:04;;;;;;;1783.28;444.50;;;15.30;99.90;;;;;;5148526;27;20285;-51
2022/10/22 04:57:32;;;;;;;1472.35;495.83;;;15.30;99.90;;;;;;5142116;27;20305;-51
2022/10/22 05:00:01;;;;;;;774.83;219.13;;;15.20;99.90;;;;;;5142987;27;20645;-52
2022/10/22 05:02:30;;;;;;;1233.13;358.90;;;15.30;99.90;;;;;;5147431;27;20288;-51
2022/10/22 05:04:58;;;;;;;1079.45;349.85;;;15.20;99.90;;;;;;5144752;27;20203;-51
2022/10/22 05:07:26;;;;;;;1256.32;679.00;;;15.20;99.90;;;;;;5144903;27;20227;-51
2022/10/22 05:09:54;;;;;;;1651.38;509.77;;;15.20;99.90;;;;;;5143029;27;20289;-52
2022/10/22 05:12:22;;;;;;;1211.20;423.88;;;15.20;99.90;;;;;;5148247;27;20224;-51
2022/10/22 05:14:50;;;;;;;1274.10;483.98;;;15.20;99.90;;;;;;5131808;27;20215;-51
2022/10/22 05:17:18;;;;;;;1176.07;366.08;;;15.20;99.90;;;;;;5131270;27;20226;-52
2022/10/22 05:19:47;;;;;;;1721.10;527.63;;;15.10;99.90;;;;;;5131217;27;20296;-50
2022/10/22 05:22:15;;;;;;;1655.05;509.23;;;15.10;99.90;;;;;;5130536;27;20214;-51
2022/10/22 05:24:44;;;;;;;1310.45;417.58;;;15.10;99.90;;;;;;5130358;27;20206;-52
2022/10/22 05:27:12;;;;;;;1735.25;616.63;;;15.20;99.90;;;;;;5130625;27;20222;-52
2022/10/22 05:29:40;;;;;;;1058.35;364.85;;;15.20;99.90;;;;;;5131457;27;20203;-52
2022/10/22 05:32:08;;;;;;;1124.90;379.42;;;15.20;99.90;;;;;;5122296;27;20290;-49
2022/10/22 05:34:36;;;;;;;1194.10;407.27;;;15.20;99.90;;;;;;5135156;27;20628;-51
2022/10/22 05:37:05;;;;;;;1229.53;397.83;;;15.20;99.90;;;;;;5126583;27;20348;-51
2022/10/22 05:39:35;;;;;;;1240.47;414.90;;;15.20;99.90;;;;;;5129883;27;20840;-51
2022/10/22 05:42:04;;;;;;;1220.07;366.40;;;15.20;99.90;;;;;;5130200;27;20214;-50
2022/10/22 05:44:32;;;;;;;1254.25;405.13;;;15.10;99.90;;;;;;5130547;27;20199;-52
2022/10/22 05:47:00;;;;;;;997.92;377.63;;;15.00;99.90;;;;;;5129841;27;20313;-50
2022/10/22 05:49:28;;;;;;;1190.80;447.38;;;15.00;99.90;;;;;;5130217;27;20206;-50
2022/10/22 05:51:56;;;;;;;1174.50;408.02;;;15.00;99.90;;;;;;5129017;27;20199;-51
2022/10/22 05:54:25;;;;;;;1265.95;537.00;;;15.00;99.90;;;;;;5129471;27;20215;-52
2022/10/22 05:56:54;;;;;;;1364.40;525.00;;;15.00;99.90;;;;;;5129663;27;20699;-52
2022/10/22 05:59:22;;;;;;;821.17;305.40;;;15.00;99.90;;;;;;5130817;27;20695;-50
2022/10/22 06:01:50;;;;;;;1242.13;444.27;;;15.00;99.90;;;;;;5128485;27;20285;-52
2022/10/22 06:04:18;;;;;;;1302.82;547.00;;;15.00;99.90;;;;;;5129841;27;20289;-51
2022/10/22 06:06:48;;;;;;;1366.20;492.83;;;15.00;99.90;;;;;;5130216;27;20310;-51
2022/10/22 06:09:20;;;;;;;1045.85;461.70;;;15.10;99.90;;;;;;5130241;27;20290;-51
2022/10/22 06:11:50;;;;;;;845.22;463.90;;;15.10;99.90;;;;;;5129490;27;20285;-51
2022/10/22 06:14:20;;;;;;;931.38;389.70;;;15.00;99.90;;;;;;5145945;27;20229;-51
2022/10/22 06:16:48;;;;;;;619.10;216.68;;;15.00;99.90;;;;;;5147660;27;20289;-52
2022/10/22 06:19:18;;;;;;;1173.63;459.02;;;15.00;99.90;;;;;;5130747;27;20294;-51
2022/10/22 06:21:47;;;;;;;1160.22;556.35;;;15.10;99.90;;;;;;5130793;27;20277;-51
2022/10/22 06:24:16;;;;;;;1055.63;395.13;;;15.10;99.90;;;;;;5130474;28;20285;-52
2022/10/22 06:26:44;;;;;;;1225.78;424.35;;;15.00;99.90;;;;;;5129749;28;20253;-51
2022/10/22 06:29:13;;;;;;;1086.22;485.50;;;15.00;99.90;;;;;;5130049;28;20302;-51
2022/10/22 06:31:41;;;;;;;1250.47;532.13;;;15.00;99.90;;;;;;5130232;27;20493;-51
2022/10/22 06:34:12;;;;;;;1330.32;455.00;;;15.00;99.90;;;;;;5130594;28;20364;-50
2022/10/22 06:36:41;;;;;;;1266.53;478.20;;;14.90;99.90;;;;;;5130125;27;20218;-52
2022/10/22 06:39:11;;;;;;;949.25;429.50;;;14.90;99.90;;;;;;5130228;27;20252;-49
2022/10/22 06:41:40;;;;;;;860.85;320.92;;;14.90;99.90;;;;;;5127994;27;20294;-50
2022/10/22 06:44:14;;;;;;;970.05;503.90;;;14.90;99.90;;;;;;5128071;28;20207;-51
2022/10/22 06:46:43;;;;;;;1200.68;503.67;;;15.00;99.90;;;;;;5128204;28;20305;-52
2022/10/22 06:49:13;;;;;;;1087.65;460.30;;;15.00;99.90;;;;;;5128406;28;20290;-51
2022/10/22 06:51:41;;;;;;;889.90;322.13;;;14.90;99.90;;;;;;5128216;28;20226;-53
2022/10/22 06:54:09;;;;;;;980.63;390.95;;;14.90;99.90;;;;;;5127823;28;20211;-50
2022/10/22 06:56:38;;;;;;;1216.78;604.85;;;14.90;99.90;;;;;;5129155;28;20598;-49
2022/10/22 06:59:06;;;;;;;1103.63;466.48;;;14.90;99.90;;;;;;5130224;28;20297;-51
2022/10/22 07:01:36;;;;;;;1366.93;490.90;;;15.00;99.90;;;;;;5129853;28;20298;-51
2022/10/22 07:04:05;;;;;;;1302.57;492.95;;;14.90;99.90;;;;;;5129427;28;20286;-51
2022/10/22 07:06:33;;;;;;;928.42;394.50;;;15.00;99.90;;;;;;5120832;27;20310;-51
2022/10/22 07:09:02;;;;;;;851.90;372.48;;;15.00;99.90;;;;;;5129487;28;20233;-51
2022/10/22 07:11:37;;;;;;;1378.05;509.15;;;14.90;99.90;;;;;;5129513;27;20243;-52
2022/10/22 07:14:05;;;;;;;803.28;347.73;;;14.90;99.90;;;;;;5140965;27;20638;-51
2022/10/22 07:16:35;;;;;;;919.45;447.58;;;14.80;99.90;;;;;;5134851;27;20302;-52
2022/10/22 07:19:04;;;;;;;976.35;391.65;;;14.80;99.90;;;;;;5148939;27;20282;-51
2022/10/22 07:21:32;;;;;;;814.17;289.55;;;14.80;99.90;;;;;;5131697;27;20844;-52
2022/10/22 07:24:01;;;;;;;773.22;438.15;;;14.90;99.90;;;;;;5140298;27;20211;-51
2022/10/22 07:26:31;;;;;;;1069.30;451.08;;;14.90;99.90;;;;;;5147567;27;20230;-51
2022/10/22 07:28:59;;;;;;;1105.93;538.28;;;14.90;99.90;;;;;;5143355;27;20218;-51
2022/10/22 07:31:28;;;;;;;1168.50;556.90;;;14.90;99.90;;;;;;5136976;27;20715;-52
2022/10/22 07:33:58;;;;;;;946.13;370.45;;;14.90;99.90;;;;;;5129581;27;20203;-51
2022/10/22 07:36:26;;;;;;;1495.43;598.13;;;14.90;99.90;;;;;;5135388;27;20313;-51
2022/10/22 07:38:56;;;;;;;1001.78;454.17;;;15.00;99.90;;;;;;5133364;27;20205;-51
2022/10/22 07:41:25;;;;;;;1219.60;463.75;;;15.00;99.90;;;;;;5133142;27;20255;-52
2022/10/22 07:43:53;;;;;;;1239.72;458.80;;;15.00;99.90;;;;;;5122288;27;20199;-51
2022/10/22 07:46:21;;;;;;;1098.88;481.45;;;15.00;99.90;;;;;;5132094;27;20667;-50
2022/10/22 07:48:49;;;;;;;709.58;279.58;;;15.00;99.90;;;;;;5136359;27;20226;-52
2022/10/22 07:51:18;;;;;;;1201.68;478.25;;;15.00;99.90;;;;;;5142098;27;20765;-51
2022/10/22 07:53:46;;;;;;;1309.55;513.67;;;15.00;99.90;;;;;;5131999;27;20209;-50
2022/10/22 07:56:15;;;;;;;1121.63;366.65;;;15.00;99.90;;;;;;5140376;27;20237;-51
2022/10/22 07:58:43;;;;;;;1177.63;471.83;;;15.10;99.90;;;;;;5136321;27;20277;-51
2022/10/22 08:01:11;;;;;;;1209.00;421.33;;;15.10;99.90;;;;;;5130884;27;20294;-51
2022/10/22 08:03:39;;;;;;;1116.93;491.63;;;15.10;99.90;;;;;;5131640;27;20210;-51
2022/10/22 08:06:07;;;;;;;1020.80;635.95;;;15.10;99.90;;;;;;5131223;27;20643;-50
2022/10/22 08:08:37;;;;;;;1349.95;540.78;;;15.20;99.90;;;;;;5132492;27;20250;-52
2022/10/22 08:11:05;;;;;;;973.85;360.98;;;15.20;99.90;;;;;;5131525;27;20195;-51
2022/10/22 08:13:33;;;;;;;1328.32;492.38;;;15.20;99.90;;;;;;5133192;27;20232;-51
2022/10/22 08:16:01;;;;;;;1316.47;538.88;;;15.20;99.90;;;;;;5129599;27;20294;-51
2022/10/22 08:18:29;;;;;;;1054.68;440.35;;;15.20;99.90;;;;;;5141925;27;20297;-51
2022/10/22 08:20:58;;;;;;;1336.05;482.05;;;15.20;99.90;;;;;;5126918;27;20220;-51
2022/10/22 08:23:26;;;;;;;1029.50;525.40;;;15.20;99.90;;;;;;5132057;27;20611;-51
2022/10/22 08:25:58;;;;;;;930.38;366.00;;;15.20;99.90;;;;;;5136794;27;20249;-52
2022/10/22 08:28:28;;;;;;;1113.30;477.25;;;15.20;99.90;;;;;;5151960;27;20596;-51
2022/10/22 08:30:56;;;;;;;1141.10;506.67;;;15.30;99.90;;;;;;5142850;27;20226;-51
2022/10/22 08:33:24;;;;;;;1289.45;659.38;;;15.30;99.90;;;;;;5135020;27;20281;-51
2022/10/22 08:35:53;;;;;;;1178.57;615.78;;;15.30;99.90;;;;;;5132668;27;21000;-51
2022/10/22 08:38:21;;;;;;;1024.80;367.67;;;15.40;99.90;;;;;;5128384;27;20290;-50
2022/10/22 08:40:52;;;;;;;971.90;429.52;;;15.40;99.90;;;;;;5141016;27;20297;-52
2022/10/22 08:43:47;;;;;;;1385.45;555.35;;;15.40;99.90;;;;;;5152380;27;20290;-51
2022/10/22 08:46:33;;;;;;;1085.40;508.52;;;15.40;99.90;;;;;;5152005;27;20233;-51
2022/10/22 08:49:04;;;;;;;1697.97;616.70;;;15.40;99.90;;;;;;5124207;27;20309;-52
2022/10/22 08:51:35;;;;;;;1213.85;386.63;;;15.40;99.90;;;;;;5149683;27;20614;-51
2022/10/22 08:54:18;;;;;;;1293.63;427.90;;;15.50;99.90;;;;;;5150271;27;20206;-51
2022/10/22 08:56:55;;;;;;;1301.03;543.17;;;15.60;99.90;;;;;;5150959;27;20315;-51
2022/10/22 08:59:29;;;;;;;1268.93;620.45;;;15.70;99.90;;;;;;5149283;27;20563;-51
2022/10/22 09:01:57;;;;;;;1133.90;448.95;;;15.80;99.90;;;;;;5150212;27;20250;-51
2022/10/22 09:04:31;;;;;;;1402.88;566.22;;;15.80;99.90;;;;;;5151345;27;20289;-51
2022/10/22 09:07:00;;;;;;;1427.65;430.08;;;15.80;99.90;;;;;;5152148;27;20222;-51
2022/10/22 09:09:36;;;;;;;1501.90;591.95;;;15.80;99.90;;;;;;5151526;27;20293;-51
2022/10/22 09:12:06;;;;;;;1087.75;469.83;;;15.90;99.90;;;;;;5140596;27;20198;-51
2022/10/22 09:14:35;;;;;;;1485.22;608.95;;;15.90;99.90;;;;;;5148700;27;20216;-50
2022/10/22 09:17:13;;;;;;;1402.00;498.73;;;15.90;99.90;;;;;;5146275;27;20301;-51
2022/10/22 09:19:49;;;;;;;1504.35;520.85;;;16.00;99.90;;;;;;5147960;27;20288;-51
2022/10/22 09:22:26;;;;;;;1100.00;466.42;;;15.90;99.90;;;;;;5141646;27;20206;-51
2022/10/22 09:24:59;;;;;;;1172.25;459.75;;;16.00;99.90;;;;;;5144359;27;20202;-51
2022/10/22 09:27:29;;;;;;;1446.45;620.90;;;15.90;99.90;;;;;;5132947;27;20233;-50
2022/10/22 09:30:00;;;;;;;1236.13;515.67;;;16.00;99.90;;;;;;5151366;27;20313;-51
2022/10/22 09:32:28;;;;;;;1251.90;561.22;;;15.90;99.90;;;;;;5144147;27;20645;-51
2022/10/22 09:34:58;;;;;;;1618.35;565.58;;;15.90;99.90;;;;;;5151666;27;20555;-51
2022/10/22 09:37:28;;;;;;;1362.60;498.38;;;16.00;99.90;;;;;;5151498;27;20667;-51
2022/10/22 09:40:03;;;;;;;1295.68;386.23;;;16.00;99.90;;;;;;5151176;27;20660;-50
2022/10/22 09:42:33;;;;;;;1271.75;541.60;;;16.00;99.90;;;;;;5141786;27;20208;-50
2022/10/22 09:45:03;;;;;;;1092.72;459.60;;;16.00;99.90;;;;;;5147820;27;20227;-51
2022/10/22 09:47:36;;;;;;;1431.90;504.23;;;16.00;99.90;;;;;;5151316;27;20305;-51
2022/10/22 09:50:25;;;;;;;1542.38;466.13;;;16.20;99.90;;;;;;5151036;27;20214;-51
2022/10/22 09:53:04;;;;;;;1560.03;624.80;;;16.40;99.90;;;;;;5150427;27;20673;-52
2022/10/22 09:55:32;;;;;;;1830.00;593.45;;;16.60;99.90;;;;;;5150951;27;20289;-51
2022/10/22 09:58:00;;;;;;;1257.55;515.83;;;16.70;99.90;;;;;;5151509;27;20305;-52
2022/10/22 10:00:30;;;;;;;1585.40;602.28;;;16.70;99.90;;;;;;5151509;27;20289;-52
2022/10/22 10:02:59;;;;;;;1488.15;587.50;;;16.70;99.90;;;;;;5144191;27;20201;-52
2022/10/22 10:05:31;;;;;;;1232.30;532.45;;;16.70;99.90;;;;;;5148204;27;20659;-52
2022/10/22 10:08:02;;;;;;;1679.38;627.40;;;16.70;99.90;;;;;;5151094;27;20773;-51
2022/10/22 10:10:36;;;;;;;1266.45;460.40;;;16.60;99.90;;;;;;5154029;27;20398;-51
2022/10/22 10:13:18;;;;;;;1048.50;356.48;;;16.60;99.90;;;;;;5130325;27;20852;-52
2022/10/22 10:15:54;;;;;;;1423.28;647.95;;;16.70;99.90;;;;;;5134076;27;20238;-51
2022/10/22 10:18:33;;;;;;;1266.75;552.40;;;16.90;99.90;;;;;;5130246;27;20287;-51
2022/10/22 10:21:09;;;;;;;1364.97;617.65;;;17.00;99.90;;;;;;5130694;27;20206;-51
2022/10/22 10:23:50;;;;;;;1181.65;578.55;;;17.00;99.90;;;;;;5133257;27;20206;-51
2022/10/22 10:26:22;;;;;;;1569.47;624.63;;;17.00;99.90;;;;;;5129995;28;20317;-51
2022/10/22 10:29:05;;;;;;;1496.25;668.28;;;17.00;99.90;;;;;;5127295;28;20224;-51
2022/10/22 10:31:45;;;;;;;1445.40;619.33;;;17.00;99.90;;;;;;5134813;27;20289;-52
2022/10/22 10:34:24;;;;;;;1685.40;703.78;;;17.10;99.90;;;;;;5117834;27;20292;-51
2022/10/22 10:37:01;;;;;;;1288.75;479.10;;;17.10;99.90;;;;;;5132083;27;20222;-51
2022/10/22 10:39:39;;;;;;;1350.13;572.53;;;17.10;99.90;;;;;;5121132;28;20570;-50
2022/10/22 10:42:11;;;;;;;1625.22;617.38;;;17.00;99.90;;;;;;5135159;27;20292;-51
2022/10/22 10:44:59;;;;;;;1294.65;575.20;;;16.90;99.90;;;;;;5142007;27;20201;-51
2022/10/22 10:47:52;;;;;;;1153.70;526.45;;;16.70;99.90;;;;;;5141859;27;20271;-52
2022/10/22 10:50:27;;;;;;;1430.03;621.95;;;16.90;99.90;;;;;;5126569;27;20219;-52
2022/10/22 10:53:03;;;;;;;1877.43;674.72;;;17.20;99.90;;;;;;5132951;27;20848;-50
2022/10/22 10:55:36;;;;;;;1219.72;571.90;;;17.40;99.90;;;;;;5146782;27;20281;-51
2022/10/22 10:58:18;;;;;;;1999.90;742.80;;;17.40;99.90;;;;;;5136494;27;20707;-52
2022/10/22 11:00:55;;;;;;;1326.65;603.97;;;17.30;99.90;;;;;;5132928;27;20190;-50
2022/10/22 11:03:52;;;;;;;985.85;409.60;;;17.20;99.90;;;;;;5126073;27;20285;-52
2022/10/22 11:06:21;;;;;;;1589.07;614.45;;;17.00;99.90;;;;;;5146286;27;20773;-50
2022/10/22 11:08:57;;;;;;;1494.97;596.33;;;17.00;99.90;;;;;;5141929;27;20249;-51
2022/10/22 11:11:33;;;;;;;1456.03;667.38;;;17.00;99.90;;;;;;5146468;27;20190;-51
2022/10/22 11:14:06;;;;;;;1141.63;506.08;;;17.10;99.90;;;;;;5145510;27;20208;-51
2022/10/22 11:16:38;;;;;;;1452.07;652.47;;;17.20;99.90;;;;;;5145473;27;20311;-52
2022/10/22 11:19:16;;;;;;;1369.05;640.78;;;17.20;99.90;;;;;;5133510;27;20293;-51
2022/10/22 11:21:59;;;;;;;1146.45;528.63;;;17.20;99.90;;;;;;5125799;27;20207;-51
2022/10/22 11:24:33;;;;;;;1272.88;599.47;;;17.10;99.90;;;;;;5129286;27;20229;-51
2022/10/22 11:27:05;;;;;;;1473.47;572.83;;;17.00;99.90;;;;;;5131963;27;20227;-52
2022/10/22 11:29:38;;;;;;;1386.75;635.03;;;16.90;99.90;;;;;;5126865;27;20257;-52
2022/10/22 11:32:10;;;;;;;1388.95;538.85;;;16.80;99.90;;;;;;5133323;27;20313;-51
2022/10/22 11:34:45;;;;;;;1315.35;608.47;;;16.80;99.90;;;;;;5133870;27;20576;-51
2022/10/22 11:37:14;;;;;;;1452.28;602.95;;;16.80;99.90;;;;;;5132584;27;21144;-51
2022/10/22 11:39:47;;;;;;;1815.28;646.13;;;16.90;99.90;;;;;;5130447;27;20205;-51
2022/10/22 11:42:20;;;;;;;1334.20;476.10;;;17.00;99.90;;;;;;5139880;27;20285;-52
2022/10/22 11:44:59;;;;;;;1290.22;453.17;;;17.00;99.90;;;;;;5143539;27;20210;-52
2022/10/22 11:47:31;;;;;;;1207.53;422.15;;;17.10;99.90;;;;;;5148553;27;20220;-53
2022/10/22 11:50:17;;;;;;;1277.20;475.77;;;17.30;99.90;;;;;;5145226;27;20214;-52
2022/10/22 11:52:55;;;;;;;1593.20;617.88;;;17.50;99.90;;;;;;5146258;27;20605;-52
2022/10/22 11:55:44;;;;;;;1529.50;576.60;;;17.60;99.90;;;;;;5148060;27;20293;-52
2022/10/22 11:58:41;;;;;;;1360.22;549.72;;;17.80;99.90;;;;;;5147902;27;20706;-52
2022/10/22 12:01:23;;;;;;;1393.70;540.10;;;17.90;99.90;;;;;;5146328;27;20198;-52
2022/10/22 12:03:53;;;;;;;1386.20;579.53;;;18.10;99.90;;;;;;5148183;27;20198;-52
2022/10/22 12:06:24;;;;;;;1630.15;544.75;;;18.00;99.90;;;;;;5150336;27;20825;-52
2022/10/22 12:08:58;;;;;;;1298.03;605.20;;;18.10;99.90;;;;;;5146771;27;20293;-50
2022/10/22 12:11:29;;;;;;;1433.53;671.42;;;17.90;99.90;;;;;;5148435;27;20222;-52
2022/10/22 12:14:11;;;;;;;995.05;486.20;;;17.70;99.90;;;;;;5147847;27;20198;-51
2022/10/22 12:16:43;;;;;;;1406.05;623.42;;;17.70;99.90;;;;;;5140179;27;20222;-52
2022/10/22 12:19:30;;;;;;;1202.80;487.40;;;17.60;99.90;;;;;;5131372;27;20581;-52
2022/10/22 12:22:10;;;;;;;1249.00;522.10;;;17.60;99.90;;;;;;5131270;27;20229;-52